Time;durP1;ratioP1;P1;durP2;ratioP2;P2;SDS_P1;SDS_P2;PMS_P1;PMS_P2;Temp;Humidity;BMP_temperature;BMP_pressure;BME280_temperature;BME280_humidity;BME280_pressure;Samples;Min_cycle;Max_cycle;Signal;HPM_P1;HPM_P2
2022/05/21 00:01:58;;;;;;;11.83;10.57;;;11.80;99.90;;;;;;5031035;28;20314;-65
2022/05/21 00:04:24;;;;;;;12.23;10.87;;;11.80;99.90;;;;;;5031377;28;20616;-65
2022/05/21 00:06:50;;;;;;;11.90;10.80;;;11.80;99.90;;;;;;5030783;28;20187;-65
2022/05/21 00:09:18;;;;;;;12.27;11.17;;;11.80;99.90;;;;;;5031208;28;20175;-64
2022/05/21 00:11:44;;;;;;;11.53;9.80;;;11.90;99.90;;;;;;5030972;28;20186;-65
2022/05/21 00:14:10;;;;;;;11.27;10.27;;;11.90;99.90;;;;;;5031045;28;20197;-65
2022/05/21 00:16:36;;;;;;;10.90;9.90;;;12.00;99.90;;;;;;5030709;28;20266;-65
2022/05/21 00:19:02;;;;;;;11.93;10.97;;;12.00;99.90;;;;;;5031083;28;20183;-65
2022/05/21 00:21:27;;;;;;;12.20;11.00;;;12.00;99.90;;;;;;5031093;28;20243;-65
2022/05/21 00:23:54;;;;;;;10.57;9.67;;;12.00;99.90;;;;;;5031023;28;20211;-65
2022/05/21 00:26:21;;;;;;;12.93;11.73;;;11.90;99.90;;;;;;5030833;28;20176;-65
2022/05/21 00:28:49;;;;;;;12.30;11.20;;;12.00;99.90;;;;;;5031003;28;20266;-66
2022/05/21 00:31:16;;;;;;;12.57;11.37;;;11.90;99.90;;;;;;5030745;28;20175;-66
2022/05/21 00:33:44;;;;;;;13.30;12.00;;;12.00;99.90;;;;;;5030788;28;20207;-65
2022/05/21 00:36:10;;;;;;;11.87;10.77;;;12.00;99.90;;;;;;5030856;28;20660;-66
2022/05/21 00:38:37;;;;;;;12.93;11.70;;;12.00;99.90;;;;;;5030725;28;20185;-66
2022/05/21 00:41:03;;;;;;;12.20;10.03;;;12.00;99.90;;;;;;5031396;28;20329;-65
2022/05/21 00:43:49;;;;;;;11.80;10.70;;;11.90;99.90;;;;;;5030517;28;20235;-66
2022/05/21 00:46:21;;;;;;;14.33;10.67;;;11.90;99.90;;;;;;5030576;28;20183;-66
2022/05/21 00:48:57;;;;;;;11.93;10.87;;;11.90;99.90;;;;;;5034342;28;20270;-65
2022/05/21 00:51:27;;;;;;;15.27;11.23;;;11.90;99.90;;;;;;5050657;28;20323;-66
2022/05/21 00:53:55;;;;;;;16.40;10.70;;;11.90;99.90;;;;;;5050620;28;20260;-66
2022/05/21 00:56:23;;;;;;;12.50;11.20;;;11.90;99.90;;;;;;5050605;28;20174;-64
2022/05/21 01:01:44;;;;;;;11.87;10.53;;;11.90;99.90;;;;;;5034354;28;20648;-65
2022/05/21 01:04:10;;;;;;;11.73;10.63;;;11.90;99.90;;;;;;5014418;28;20219;-66
2022/05/21 01:06:36;;;;;;;13.10;10.53;;;11.90;99.90;;;;;;5014080;28;20262;-66
2022/05/21 01:09:02;;;;;;;13.40;10.17;;;11.90;99.90;;;;;;5033457;28;20619;-65
2022/05/21 01:11:28;;;;;;;12.90;11.70;;;11.90;99.90;;;;;;5034108;28;20225;-65
2022/05/21 01:13:54;;;;;;;12.10;10.67;;;11.90;99.90;;;;;;5033832;28;20302;-66
2022/05/21 01:16:20;;;;;;;15.80;10.83;;;11.90;99.90;;;;;;5033877;28;20176;-65
2022/05/21 01:18:45;;;;;;;14.33;10.70;;;11.80;99.90;;;;;;5034018;28;20187;-66
2022/05/21 01:21:11;;;;;;;10.57;9.47;;;11.80;99.90;;;;;;5034032;28;20179;-66
2022/05/21 01:23:37;;;;;;;11.67;9.77;;;11.80;99.90;;;;;;5033620;28;20640;-66
2022/05/21 01:26:05;;;;;;;10.77;9.83;;;11.80;99.90;;;;;;5033704;28;20222;-66
2022/05/21 01:28:33;;;;;;;12.97;10.20;;;11.70;99.90;;;;;;5033653;28;20297;-66
2022/05/21 01:31:00;;;;;;;10.43;9.50;;;11.70;99.90;;;;;;5033931;28;20175;-66
2022/05/21 01:33:33;;;;;;;11.03;9.23;;;11.60;99.90;;;;;;5033461;28;20571;-65
2022/05/21 01:35:59;;;;;;;12.77;11.27;;;11.60;99.90;;;;;;5033602;28;20197;-66
2022/05/21 01:38:28;;;;;;;12.33;11.20;;;11.60;99.90;;;;;;5033596;28;20715;-66
2022/05/21 01:40:54;;;;;;;11.60;10.23;;;11.50;99.90;;;;;;5032327;28;20232;-66
2022/05/21 01:46:04;;;;;;;10.93;9.93;;;11.50;99.90;;;;;;5033906;28;20218;-65
2022/05/21 01:48:31;;;;;;;12.37;11.07;;;11.50;99.90;;;;;;5033282;28;20650;-66
2022/05/21 01:50:57;;;;;;;15.77;9.70;;;11.50;99.90;;;;;;5033481;28;20175;-66
2022/05/21 01:53:25;;;;;;;10.93;9.80;;;11.40;99.90;;;;;;5032938;28;20553;-66
2022/05/21 01:55:52;;;;;;;11.47;9.77;;;11.40;99.90;;;;;;5033190;28;20771;-66
2022/05/21 01:58:19;;;;;;;10.13;9.23;;;11.40;99.90;;;;;;5033048;28;20195;-65
2022/05/21 02:00:45;;;;;;;10.50;9.60;;;11.50;99.90;;;;;;5032822;28;20179;-65
2022/05/21 02:03:13;;;;;;;10.03;9.00;;;11.40;99.90;;;;;;5033015;28;20226;-65
2022/05/21 02:05:39;;;;;;;10.27;9.33;;;11.40;99.90;;;;;;5032892;28;20507;-65
2022/05/21 02:08:06;;;;;;;10.47;9.47;;;11.40;99.90;;;;;;5033379;28;20182;-65
2022/05/21 02:10:32;;;;;;;9.27;8.53;;;11.40;99.90;;;;;;5031989;28;20215;-65
2022/05/21 02:12:57;;;;;;;9.67;8.77;;;11.50;99.90;;;;;;5032883;28;20199;-65
2022/05/21 02:15:23;;;;;;;10.37;9.17;;;11.60;99.90;;;;;;5032636;28;20692;-64
2022/05/21 02:17:48;;;;;;;12.97;9.63;;;11.70;99.90;;;;;;5032993;28;20179;-65
2022/05/21 02:20:14;;;;;;;9.00;8.10;;;11.80;99.90;;;;;;5032658;28;20175;-65
2022/05/21 02:22:40;;;;;;;9.77;8.97;;;11.90;99.90;;;;;;5032604;28;20200;-65
2022/05/21 02:25:07;;;;;;;8.93;8.13;;;12.00;99.90;;;;;;5032488;28;20187;-65
2022/05/21 02:27:33;;;;;;;8.70;7.90;;;12.10;99.90;;;;;;5032491;28;20241;-65
2022/05/21 02:29:59;;;;;;;8.40;7.63;;;12.10;99.90;;;;;;5032680;28;20175;-65
2022/05/21 02:32:24;;;;;;;9.33;8.40;;;12.10;99.90;;;;;;5031845;28;20179;-65
2022/05/21 02:34:50;;;;;;;7.87;7.27;;;12.00;99.90;;;;;;5032172;28;20610;-65
2022/05/21 02:40:00;;;;;;;6.73;6.33;;;11.90;99.90;;;;;;5012889;28;20195;-64
2022/05/21 02:42:45;;;;;;;6.80;6.10;;;11.80;99.90;;;;;;5013258;28;20207;-66
2022/05/21 02:45:14;;;;;;;6.53;6.13;;;11.80;99.90;;;;;;5031893;28;20235;-66
2022/05/21 02:47:40;;;;;;;7.73;6.07;;;11.70;99.90;;;;;;5032120;28;20172;-66
2022/05/21 02:50:08;;;;;;;6.90;6.30;;;11.70;99.90;;;;;;5032424;28;20556;-65
2022/05/21 02:52:33;;;;;;;9.20;6.70;;;11.60;99.90;;;;;;5032047;28;20171;-66
2022/05/21 02:54:59;;;;;;;7.20;6.30;;;11.60;99.90;;;;;;5011940;28;20606;-65
2022/05/21 02:57:25;;;;;;;6.43;6.03;;;11.50;99.90;;;;;;5012440;28;20184;-65
2022/05/21 02:59:51;;;;;;;8.90;6.37;;;11.50;99.90;;;;;;5030796;28;20215;-65
2022/05/21 03:02:18;;;;;;;6.93;6.27;;;11.50;99.90;;;;;;5032450;28;20615;-66
2022/05/21 03:04:44;;;;;;;6.27;5.87;;;11.50;99.90;;;;;;5031440;28;20222;-66
2022/05/21 03:07:10;;;;;;;16.90;7.13;;;11.50;99.90;;;;;;5031970;28;20633;-66
2022/05/21 03:12:20;;;;;;;6.43;6.03;;;11.70;99.90;;;;;;5032062;28;20317;-65
2022/05/21 03:14:46;;;;;;;6.83;6.33;;;11.90;99.90;;;;;;5031462;28;20394;-66
2022/05/21 03:17:12;;;;;;;7.00;6.10;;;11.90;99.90;;;;;;5031811;28;20264;-65
2022/05/21 03:19:38;;;;;;;6.40;5.80;;;12.10;99.90;;;;;;5031804;28;20176;-67
2022/05/21 03:22:04;;;;;;;6.93;6.30;;;12.20;99.90;;;;;;5031130;28;20167;-65
2022/05/21 03:24:30;;;;;;;6.17;5.60;;;12.30;99.90;;;;;;5031143;28;20598;-65
2022/05/21 03:26:56;;;;;;;7.10;6.60;;;12.30;99.90;;;;;;5031395;28;20187;-65
2022/05/21 03:29:23;;;;;;;7.83;6.07;;;12.40;99.90;;;;;;5031758;28;20662;-66
2022/05/21 03:31:49;;;;;;;6.33;5.83;;;12.50;99.90;;;;;;5031182;28;20168;-66
2022/05/21 03:34:15;;;;;;;7.37;5.73;;;12.60;99.90;;;;;;5031586;28;20200;-66
2022/05/21 03:36:41;;;;;;;6.40;5.80;;;12.60;99.90;;;;;;5031159;28;20179;-66
2022/05/21 03:39:06;;;;;;;6.40;5.90;;;12.60;99.90;;;;;;5031676;28;20176;-66
2022/05/21 03:41:32;;;;;;;5.67;5.37;;;12.60;99.90;;;;;;5031359;28;20182;-66
2022/05/21 03:43:58;;;;;;;6.53;6.10;;;12.70;99.90;;;;;;5056051;22;20317;-71
2022/05/21 03:46:24;;;;;;;5.70;5.27;;;12.70;99.90;;;;;;5030764;28;20172;-71
2022/05/21 03:48:50;;;;;;;5.67;5.30;;;12.70;99.90;;;;;;5031744;28;20194;-68
2022/05/21 03:51:16;;;;;;;5.73;5.43;;;12.80;99.90;;;;;;5031795;28;20194;-65
2022/05/21 03:53:42;;;;;;;5.47;5.00;;;12.90;99.90;;;;;;5031273;28;20207;-65
2022/05/21 03:56:07;;;;;;;6.20;5.70;;;12.90;99.90;;;;;;5031173;28;20171;-65
2022/05/21 03:58:33;;;;;;;5.73;5.33;;;12.90;99.90;;;;;;5031266;28;20187;-69
2022/05/21 04:00:59;;;;;;;5.63;5.13;;;12.90;99.90;;;;;;5031366;28;20187;-66
2022/05/21 04:03:26;;;;;;;5.97;5.37;;;12.90;99.90;;;;;;5029754;28;20211;-66
2022/05/21 04:05:55;;;;;;;5.63;5.13;;;12.90;99.90;;;;;;5031400;28;20168;-65
2022/05/21 04:08:21;;;;;;;5.50;5.20;;;12.90;99.90;;;;;;5031187;28;20660;-65
2022/05/21 04:10:48;;;;;;;6.03;5.53;;;12.90;99.90;;;;;;5031547;28;20178;-66
2022/05/21 04:13:14;;;;;;;6.73;5.40;;;12.90;99.90;;;;;;5031020;28;20175;-65
2022/05/21 04:15:40;;;;;;;5.77;5.17;;;12.90;99.90;;;;;;5031146;28;20176;-65
2022/05/21 04:18:06;;;;;;;5.33;4.93;;;12.90;99.90;;;;;;5031242;28;20250;-65
2022/05/21 04:20:32;;;;;;;8.50;4.93;;;13.00;99.90;;;;;;5031055;28;20214;-65
2022/05/21 04:22:57;;;;;;;5.97;5.57;;;13.00;99.90;;;;;;5029655;28;20191;-65
2022/05/21 04:25:24;;;;;;;6.33;5.63;;;13.00;99.90;;;;;;5030903;28;20233;-66
2022/05/21 04:27:50;;;;;;;5.33;4.83;;;13.10;99.90;;;;;;5029789;28;20644;-65
2022/05/21 04:30:25;;;;;;;5.07;4.67;;;13.00;99.90;;;;;;5031259;28;20207;-66
2022/05/21 04:32:50;;;;;;;5.20;4.80;;;13.10;99.90;;;;;;5031200;28;20171;-66
2022/05/21 04:35:16;;;;;;;5.17;4.77;;;13.00;99.90;;;;;;5034696;28;20195;-65
2022/05/21 04:37:42;;;;;;;4.97;4.57;;;13.00;99.90;;;;;;5034927;28;20644;-65
2022/05/21 04:40:11;;;;;;;5.10;4.80;;;13.10;99.90;;;;;;5033606;28;20266;-65
2022/05/21 04:42:37;;;;;;;5.00;4.70;;;13.00;99.90;;;;;;5033488;28;20229;-65
2022/05/21 04:45:04;;;;;;;5.57;4.60;;;13.00;99.90;;;;;;5013393;28;20301;-65
2022/05/21 04:47:30;;;;;;;7.23;5.10;;;13.00;99.90;;;;;;5015191;28;20218;-64
2022/05/21 04:49:56;;;;;;;7.13;4.90;;;13.00;99.90;;;;;;5032173;28;20172;-66
2022/05/21 04:52:21;;;;;;;5.20;4.70;;;13.00;99.90;;;;;;5033531;28;20589;-66
2022/05/21 04:54:47;;;;;;;6.27;5.57;;;13.00;99.90;;;;;;5034477;28;20200;-67
2022/05/21 04:57:13;;;;;;;5.47;5.07;;;13.10;99.90;;;;;;5034757;28;20544;-66
2022/05/21 04:59:38;;;;;;;5.53;5.13;;;13.10;99.90;;;;;;5033315;28;20687;-67
2022/05/21 05:02:05;;;;;;;6.43;5.00;;;13.20;99.90;;;;;;5033458;28;20668;-65
2022/05/21 05:04:31;;;;;;;5.97;5.47;;;13.30;99.90;;;;;;5032624;28;20218;-65
2022/05/21 05:06:57;;;;;;;5.80;5.30;;;13.30;99.90;;;;;;5034359;28;20171;-65
2022/05/21 05:09:23;;;;;;;5.90;5.37;;;13.40;99.90;;;;;;5034304;28;20180;-66
2022/05/21 05:11:52;;;;;;;7.23;4.83;;;13.40;99.90;;;;;;5033392;28;20258;-66
2022/05/21 05:14:18;;;;;;;6.27;5.73;;;13.40;99.90;;;;;;5032603;28;20203;-65
2022/05/21 05:16:45;;;;;;;7.57;5.87;;;13.40;99.90;;;;;;5034378;28;20195;-65
2022/05/21 05:19:10;;;;;;;6.80;6.10;;;13.30;99.90;;;;;;5032637;28;20229;-67
2022/05/21 05:21:36;;;;;;;5.77;5.27;;;13.40;99.90;;;;;;5033181;28;20584;-66
2022/05/21 05:24:03;;;;;;;6.03;5.63;;;13.40;99.90;;;;;;5033902;28;20207;-65
2022/05/21 05:26:28;;;;;;;6.80;5.23;;;13.40;99.90;;;;;;5034193;28;20549;-66
2022/05/21 05:28:54;;;;;;;5.60;5.20;;;13.40;99.90;;;;;;5035228;28;20186;-66
2022/05/21 05:31:20;;;;;;;6.60;5.40;;;13.30;99.90;;;;;;5050851;28;20183;-66
2022/05/21 05:33:46;;;;;;;5.33;4.87;;;13.40;99.90;;;;;;5055043;28;20192;-65
2022/05/21 05:36:11;;;;;;;5.60;5.20;;;13.40;99.90;;;;;;5054236;28;20242;-66
2022/05/21 05:38:37;;;;;;;6.23;5.63;;;13.30;99.90;;;;;;5049898;28;20266;-66
2022/05/21 05:41:06;;;;;;;5.80;5.40;;;13.40;99.90;;;;;;5033162;28;20290;-66
2022/05/21 05:43:32;;;;;;;5.70;5.20;;;13.40;99.90;;;;;;5033723;28;20585;-65
2022/05/21 05:45:58;;;;;;;5.60;5.20;;;13.40;99.90;;;;;;5033262;28;20225;-66
2022/05/21 05:48:25;;;;;;;6.13;5.60;;;13.40;99.90;;;;;;5032752;28;20175;-66
2022/05/21 05:50:50;;;;;;;6.63;5.90;;;13.50;99.90;;;;;;5032275;28;20184;-66
2022/05/21 05:53:16;;;;;;;8.30;6.07;;;13.50;99.90;;;;;;5033787;28;20179;-66
2022/05/21 05:55:42;;;;;;;5.70;5.33;;;13.60;99.90;;;;;;5033652;28;20178;-66
2022/05/21 06:00:52;;;;;;;6.17;5.77;;;13.60;99.90;;;;;;5033681;28;20181;-66
2022/05/21 06:03:20;;;;;;;6.60;6.20;;;13.70;99.90;;;;;;5032991;28;20298;-66
2022/05/21 06:05:45;;;;;;;7.13;5.67;;;13.70;99.90;;;;;;5033348;28;20543;-65
2022/05/21 06:08:11;;;;;;;5.63;5.23;;;13.70;99.90;;;;;;5033183;28;20241;-66
2022/05/21 06:10:39;;;;;;;5.47;5.07;;;13.70;99.90;;;;;;5033057;28;20242;-64
2022/05/21 06:13:06;;;;;;;6.03;5.63;;;13.70;99.90;;;;;;5033320;28;20179;-65
2022/05/21 06:15:32;;;;;;;7.57;5.63;;;13.70;99.90;;;;;;5032671;28;20194;-65
2022/05/21 06:17:57;;;;;;;6.83;5.93;;;13.70;99.90;;;;;;5033128;28;20259;-66
2022/05/21 06:20:26;;;;;;;7.37;6.87;;;13.70;99.90;;;;;;5032784;28;20633;-65
2022/05/21 06:22:53;;;;;;;7.17;6.20;;;13.80;99.90;;;;;;5032854;28;20620;-66
2022/05/21 06:25:21;;;;;;;7.03;6.33;;;13.80;99.90;;;;;;5032525;28;20203;-66
2022/05/21 06:27:49;;;;;;;6.27;5.77;;;13.80;99.90;;;;;;5031506;28;20229;-65
2022/05/21 06:30:16;;;;;;;6.30;5.80;;;13.90;99.90;;;;;;5033185;28;20580;-66
2022/05/21 06:32:42;;;;;;;6.20;5.80;;;13.90;99.90;;;;;;5032573;28;20291;-65
2022/05/21 06:35:09;;;;;;;7.33;5.67;;;13.90;99.90;;;;;;5032245;28;20195;-65
2022/05/21 06:37:35;;;;;;;6.33;5.93;;;14.00;99.90;;;;;;5032734;28;20314;-66
2022/05/21 06:40:03;;;;;;;7.03;6.07;;;14.00;99.90;;;;;;5033336;28;20187;-67
2022/05/21 06:42:28;;;;;;;6.00;5.63;;;14.10;99.90;;;;;;5031238;28;20203;-66
2022/05/21 06:44:54;;;;;;;6.90;6.30;;;14.20;99.90;;;;;;5032036;28;20207;-65
2022/05/21 06:47:21;;;;;;;6.30;5.80;;;14.20;99.90;;;;;;5032359;28;20199;-66
2022/05/21 06:49:46;;;;;;;6.43;5.77;;;14.20;99.90;;;;;;5032728;28;20630;-65
2022/05/21 06:52:12;;;;;;;7.30;6.10;;;14.20;99.90;;;;;;5032707;28;20195;-66
2022/05/21 06:54:37;;;;;;;6.23;5.83;;;14.30;99.90;;;;;;5030988;28;20199;-66
2022/05/21 06:57:08;;;;;;;6.03;5.60;;;14.30;99.90;;;;;;5032262;28;20206;-66
2022/05/21 06:59:34;;;;;;;6.57;6.07;;;14.40;99.90;;;;;;5032769;28;20183;-66
2022/05/21 07:02:00;;;;;;;8.20;6.60;;;14.40;99.90;;;;;;5028078;28;20176;-66
2022/05/21 07:07:34;;;;;;;6.63;6.20;;;14.60;99.90;;;;;;4983999;28;20188;-66
2022/05/21 07:10:06;;;;;;;7.23;5.90;;;14.70;99.90;;;;;;5030867;28;20206;-66
2022/05/21 07:12:32;;;;;;;10.27;6.30;;;14.90;99.90;;;;;;5032097;28;20629;-66
2022/05/21 07:14:58;;;;;;;5.57;5.07;;;14.80;99.90;;;;;;5031479;28;20233;-66
2022/05/21 07:17:23;;;;;;;7.90;6.03;;;14.70;99.90;;;;;;5030496;28;20219;-66
2022/05/21 07:19:49;;;;;;;6.37;5.77;;;14.80;99.90;;;;;;5030937;28;20386;-67
2022/05/21 07:22:14;;;;;;;6.90;6.20;;;14.90;99.90;;;;;;5032036;28;20542;-66
2022/05/21 07:24:44;;;;;;;6.80;6.10;;;14.90;99.90;;;;;;5031692;28;20665;-66
2022/05/21 07:27:13;;;;;;;6.43;6.00;;;14.90;99.90;;;;;;5030428;28;20180;-66
2022/05/21 07:29:40;;;;;;;6.50;5.90;;;14.90;99.90;;;;;;5030772;28;20180;-66
2022/05/21 07:32:14;;;;;;;6.10;5.50;;;15.00;99.90;;;;;;5032044;28;20175;-66
2022/05/21 07:34:39;;;;;;;6.17;5.53;;;15.10;99.90;;;;;;5031883;28;20567;-67
2022/05/21 07:37:05;;;;;;;6.90;6.23;;;15.30;99.90;;;;;;5031921;28;20172;-67
2022/05/21 07:39:30;;;;;;;8.40;6.07;;;15.30;99.90;;;;;;5030572;28;20599;-67
2022/05/21 07:41:56;;;;;;;8.93;5.50;;;15.50;99.90;;;;;;5030104;28;20187;-66
2022/05/21 07:44:22;;;;;;;9.23;5.13;;;15.90;99.90;;;;;;5032068;28;20229;-66
2022/05/21 07:46:47;;;;;;;5.57;5.17;;;16.10;99.90;;;;;;5032091;28;20250;-66
2022/05/21 07:49:13;;;;;;;6.73;6.10;;;16.40;99.90;;;;;;5032496;28;20178;-65
2022/05/21 07:51:38;;;;;;;6.23;4.90;;;16.70;99.90;;;;;;5033011;28;20225;-66
2022/05/21 07:54:04;;;;;;;6.03;5.40;;;16.90;99.90;;;;;;5032756;28;20612;-65
2022/05/21 07:56:30;;;;;;;6.97;4.67;;;17.40;99.90;;;;;;5031871;28;20179;-63
2022/05/21 07:58:56;;;;;;;5.40;4.93;;;17.70;99.90;;;;;;5030598;28;20178;-66
2022/05/21 08:01:22;;;;;;;8.23;5.00;;;18.00;99.90;;;;;;5032062;28;20212;-65
2022/05/21 08:03:47;;;;;;;5.93;5.03;;;17.90;99.90;;;;;;5031944;28;20199;-66
2022/05/21 08:06:13;;;;;;;6.40;5.00;;;17.80;99.90;;;;;;5031358;28;20242;-65
2022/05/21 08:08:39;;;;;;;11.33;4.53;;;18.00;99.90;;;;;;5034589;28;20176;-65
2022/05/21 08:11:04;;;;;;;6.23;4.10;;;18.30;99.90;;;;;;5035468;28;20198;-66
2022/05/21 08:13:30;;;;;;;4.23;3.83;;;18.90;99.90;;;;;;5033897;28;20234;-65
2022/05/21 08:15:56;;;;;;;5.50;4.37;;;19.30;99.90;;;;;;5035129;28;20641;-66
2022/05/21 08:18:22;;;;;;;4.63;4.23;;;19.50;99.90;;;;;;5035313;28;20184;-66
2022/05/21 08:20:49;;;;;;;4.83;4.43;;;19.80;99.90;;;;;;5035594;28;20180;-66
2022/05/21 08:28:45;;;;;;;4.60;4.20;;;19.80;99.90;;;;;;5035672;28;20548;-65
2022/05/21 08:31:10;;;;;;;7.40;4.77;;;19.30;99.90;;;;;;5035139;28;20179;-65
2022/05/21 08:33:36;;;;;;;4.40;4.10;;;18.70;99.90;;;;;;5034970;28;20199;-66
2022/05/21 08:36:02;;;;;;;5.73;5.33;;;18.60;99.90;;;;;;5015231;28;20550;-65
2022/05/21 08:38:28;;;;;;;4.40;4.03;;;18.80;99.90;;;;;;5015105;28;20180;-66
2022/05/21 08:41:03;;;;;;;5.40;5.00;;;19.50;99.90;;;;;;5015167;28;20172;-65
2022/05/21 08:43:49;;;;;;;5.30;4.80;;;19.40;99.90;;;;;;5014054;28;20801;-66
2022/05/21 08:46:21;;;;;;;5.67;4.80;;;19.20;99.90;;;;;;5014815;28;20180;-65
2022/05/21 08:49:01;;;;;;;4.77;4.40;;;19.70;99.90;;;;;;5013962;28;20177;-66
2022/05/21 08:51:32;;;;;;;5.57;5.03;;;19.50;99.90;;;;;;5014855;28;20267;-65
2022/05/21 08:54:00;;;;;;;5.17;4.63;;;19.60;99.90;;;;;;5015055;28;20199;-65
2022/05/21 08:56:26;;;;;;;6.87;4.67;;;20.00;99.90;;;;;;5014606;28;20656;-65
2022/05/21 08:59:07;;;;;;;4.27;3.90;;;19.90;99.90;;;;;;5014886;28;20180;-67
2022/05/21 09:01:36;;;;;;;5.33;4.50;;;19.50;99.90;;;;;;5014966;28;20238;-66
2022/05/21 09:04:03;;;;;;;4.80;4.40;;;19.40;99.90;;;;;;5014942;28;20612;-65
2022/05/21 09:06:34;;;;;;;8.10;7.60;;;19.10;99.90;;;;;;5014278;28;20705;-66
2022/05/21 09:09:40;;;;;;;4.97;4.67;;;18.60;99.90;;;;;;5014754;28;20539;-65
2022/05/21 09:12:22;;;;;;;5.07;3.93;;;18.60;99.90;;;;;;5014907;28;20199;-65
2022/05/21 09:14:59;;;;;;;4.90;4.50;;;19.20;99.90;;;;;;5014620;28;20191;-65
2022/05/21 09:17:26;;;;;;;5.37;5.03;;;19.10;99.90;;;;;;5014766;28;20259;-66
2022/05/21 09:19:58;;;;;;;6.13;4.73;;;18.90;99.90;;;;;;5014611;28;20570;-65
2022/05/21 09:22:24;;;;;;;4.97;4.47;;;18.40;99.90;;;;;;5014503;28;20215;-64
2022/05/21 09:24:59;;;;;;;4.40;4.03;;;18.90;99.90;;;;;;5014459;28;20246;-65
2022/05/21 09:27:42;;;;;;;4.20;3.80;;;19.10;99.90;;;;;;5014419;28;20183;-66
2022/05/21 09:30:27;;;;;;;6.10;4.20;;;19.20;99.90;;;;;;5014662;28;20183;-65
2022/05/21 09:32:58;;;;;;;4.77;4.37;;;19.50;99.90;;;;;;5014458;28;20255;-66
2022/05/21 09:35:31;;;;;;;4.80;4.47;;;20.20;99.90;;;;;;5013796;28;20348;-65
2022/05/21 09:38:21;;;;;;;4.63;4.23;;;20.60;99.90;;;;;;5013006;28;20180;-65
2022/05/21 09:40:47;;;;;;;3.72;3.38;;;21.10;99.90;;;;;;5014336;28;20184;-65
2022/05/21 09:46:34;;;;;;;4.55;3.88;;;22.60;99.90;;;;;;5015310;28;20275;-65
2022/05/21 09:49:25;;;;;;;3.50;3.20;;;23.20;99.90;;;;;;5031796;28;20184;-67
2022/05/21 09:52:03;;;;;;;3.95;3.65;;;24.00;99.90;;;;;;5035999;28;20183;-66
2022/05/21 09:54:36;;;;;;;4.05;3.65;;;22.90;99.90;;;;;;5013324;28;20196;-67
2022/05/21 09:57:03;;;;;;;3.73;3.43;;;22.10;99.90;;;;;;5013740;28;20176;-65
2022/05/21 09:59:31;;;;;;;4.63;3.57;;;22.00;99.90;;;;;;5013934;28;20180;-66
2022/05/21 10:02:19;;;;;;;4.07;3.67;;;21.60;99.90;;;;;;5012442;28;20657;-64
2022/05/21 10:04:52;;;;;;;4.00;3.70;;;21.30;99.90;;;;;;5028617;28;20206;-66
2022/05/21 10:13:07;;;;;;;6.97;6.37;;;20.70;99.90;;;;;;5014810;28;20210;-64
2022/05/21 10:15:48;;;;;;;5.77;4.53;;;20.40;99.90;;;;;;5028463;28;20175;-66
2022/05/21 10:18:35;;;;;;;4.83;4.27;;;19.90;99.90;;;;;;5032983;28;20175;-65
2022/05/21 10:21:19;;;;;;;5.50;4.67;;;19.90;99.90;;;;;;5032645;28;20266;-66
2022/05/21 10:23:51;;;;;;;6.07;4.03;;;20.60;99.90;;;;;;5033025;28;20586;-66
2022/05/21 10:26:35;;;;;;;4.30;3.90;;;21.30;99.90;;;;;;5032577;28;20167;-65
2022/05/21 10:29:30;;;;;;;4.47;4.07;;;21.70;99.90;;;;;;5032914;28;20259;-65
2022/05/21 10:32:13;;;;;;;4.37;4.07;;;21.50;99.90;;;;;;5032570;28;20649;-65
2022/05/21 10:34:57;;;;;;;3.78;3.47;;;21.90;99.90;;;;;;5013025;28;20234;-66
2022/05/21 10:38:01;;;;;;;4.20;3.80;;;21.90;99.90;;;;;;5015926;28;20589;-66
2022/05/21 10:40:44;;;;;;;5.40;3.70;;;22.10;99.90;;;;;;5032771;28;20195;-66
2022/05/21 10:43:24;;;;;;;4.38;3.80;;;22.50;99.90;;;;;;5030821;28;20226;-66
2022/05/21 10:46:08;;;;;;;3.80;3.50;;;22.90;99.90;;;;;;5032437;28;20175;-65
2022/05/21 10:49:01;;;;;;;6.97;3.55;;;23.40;99.90;;;;;;5032356;28;20183;-66
2022/05/21 10:51:34;;;;;;;5.55;4.38;;;23.10;99.90;;;;;;5032277;28;20218;-65
2022/05/21 10:54:53;;;;;;;4.90;4.60;;;22.70;99.90;;;;;;5032545;28;20227;-66
2022/05/21 10:57:43;;;;;;;5.80;5.30;;;22.00;99.90;;;;;;5032055;28;20241;-64
2022/05/21 11:00:35;;;;;;;4.80;4.50;;;20.70;99.90;;;;;;5032478;28;20182;-66
2022/05/21 11:03:31;;;;;;;7.07;5.20;;;20.40;99.90;;;;;;5026522;28;20546;-65
2022/05/21 11:06:13;;;;;;;8.10;5.70;;;19.80;99.90;;;;;;5032155;28;20164;-66
2022/05/21 11:08:53;;;;;;;6.77;6.13;;;19.70;99.90;;;;;;5030864;28;20237;-66
2022/05/21 11:11:42;;;;;;;5.97;5.47;;;19.90;99.90;;;;;;5030404;28;20183;-65
2022/05/21 11:14:17;;;;;;;5.03;4.73;;;19.90;99.90;;;;;;5012169;28;20230;-66
2022/05/21 11:16:57;;;;;;;4.73;4.33;;;20.40;99.90;;;;;;5026622;28;20274;-65
2022/05/21 11:19:25;;;;;;;5.17;3.40;;;21.20;99.90;;;;;;5031561;28;20539;-65
2022/05/21 11:22:02;;;;;;;3.50;3.20;;;21.90;99.90;;;;;;5031893;28;20183;-66
2022/05/21 11:24:50;;;;;;;3.83;3.28;;;22.90;99.90;;;;;;5031276;28;20905;-66
2022/05/21 11:27:24;;;;;;;3.95;3.45;;;23.30;99.90;;;;;;5030150;28;20172;-65
2022/05/21 11:30:00;;;;;;;4.22;3.83;;;23.90;99.90;;;;;;5031816;28;20175;-66
2022/05/21 11:38:52;;;;;;;5.05;3.63;;;23.30;99.90;;;;;;5003555;28;20191;-66
2022/05/21 11:41:27;;;;;;;4.13;3.93;;;22.10;99.90;;;;;;5019006;28;20519;-65
2022/05/21 11:43:56;;;;;;;6.60;4.70;;;21.50;99.90;;;;;;5031233;28;20222;-65
2022/05/21 11:46:37;;;;;;;5.67;5.20;;;20.80;99.90;;;;;;5026407;28;20540;-65
2022/05/21 11:49:28;;;;;;;4.63;4.23;;;20.50;99.90;;;;;;5031519;28;20537;-65
2022/05/21 11:51:58;;;;;;;5.43;5.00;;;20.50;99.90;;;;;;5031339;28;20183;-65
2022/05/21 11:54:45;;;;;;;4.77;4.37;;;20.90;99.90;;;;;;5031108;28;20191;-66
2022/05/21 11:57:11;;;;;;;6.43;6.07;;;20.80;99.90;;;;;;5028956;28;20893;-66
2022/05/21 11:59:51;;;;;;;6.30;5.77;;;20.70;99.90;;;;;;5029332;28;20184;-66
2022/05/21 12:02:29;;;;;;;4.85;3.55;;;21.30;99.90;;;;;;5030357;28;20187;-66
2022/05/21 12:05:00;;;;;;;4.18;3.78;;;22.20;99.90;;;;;;5031117;28;20583;-65
2022/05/21 12:07:41;;;;;;;3.75;3.47;;;23.00;99.90;;;;;;5031147;28;20616;-64
2022/05/21 12:10:24;;;;;;;4.60;3.40;;;23.20;99.90;;;;;;5031261;28;20183;-66
2022/05/21 12:13:16;;;;;;;3.97;3.67;;;23.20;99.90;;;;;;5031363;28;20180;-66
2022/05/21 12:16:06;;;;;;;3.45;3.25;;;23.50;99.90;;;;;;5031219;28;20462;-66
2022/05/21 12:18:40;;;;;;;3.88;3.55;;;24.20;99.90;;;;;;5010975;28;20700;-66
2022/05/21 12:21:13;;;;;;;3.63;3.35;;;25.00;99.90;;;;;;5031343;28;20175;-65
2022/05/21 12:23:42;;;;;;;3.25;3.03;;;25.10;99.90;;;;;;5031104;28;20688;-65
2022/05/21 12:26:21;;;;;;;3.47;3.17;;;25.10;99.90;;;;;;5031002;28;20206;-66
2022/05/21 12:29:01;;;;;;;3.70;3.40;;;24.30;99.90;;;;;;5031120;28;20260;-65
2022/05/21 12:31:35;;;;;;;4.10;3.70;;;23.80;99.90;;;;;;5031041;28;20210;-65
2022/05/21 12:34:22;;;;;;;4.22;3.40;;;23.60;99.90;;;;;;5029465;28;20198;-65
2022/05/21 12:37:12;;;;;;;3.78;3.40;;;23.90;99.90;;;;;;5030968;28;20266;-65
2022/05/21 12:39:53;;;;;;;4.30;3.95;;;24.40;99.90;;;;;;5031179;28;20191;-66
2022/05/21 12:42:58;;;;;;;4.25;3.55;;;24.20;99.90;;;;;;5030994;28;20577;-65
2022/05/21 12:45:32;;;;;;;5.38;4.25;;;24.20;99.90;;;;;;5030402;28;20241;-66
2022/05/21 12:48:31;;;;;;;5.03;3.42;;;24.80;99.90;;;;;;5031195;28;20509;-65
2022/05/21 12:51:00;;;;;;;7.38;3.88;;;25.30;99.90;;;;;;5031133;28;20233;-66
2022/05/21 12:53:36;;;;;;;4.35;3.50;;;25.40;99.90;;;;;;5031572;28;20645;-66
2022/05/21 12:56:12;;;;;;;4.65;3.50;;;26.10;99.90;;;;;;5034479;28;20171;-65
2022/05/21 12:58:38;;;;;;;3.60;3.30;;;26.10;99.90;;;;;;5034808;28;20167;-65
2022/05/21 13:01:04;;;;;;;3.72;3.42;;;25.70;99.90;;;;;;5034438;28;20178;-65
2022/05/21 13:03:33;;;;;;;5.97;3.42;;;25.30;99.90;;;;;;5034449;28;20578;-65
2022/05/21 13:06:03;;;;;;;3.83;3.50;;;24.60;99.90;;;;;;5032978;28;20538;-66
2022/05/21 13:08:31;;;;;;;4.50;3.50;;;24.60;99.90;;;;;;5033239;28;20176;-65
2022/05/21 13:11:02;;;;;;;4.10;3.53;;;24.60;99.90;;;;;;5034580;28;20175;-65
2022/05/21 13:13:33;;;;;;;4.25;3.75;;;24.30;99.90;;;;;;5034216;28;20624;-66
2022/05/21 13:16:01;;;;;;;5.65;3.55;;;25.10;99.90;;;;;;5035197;28;20206;-66
2022/05/21 13:18:50;;;;;;;4.60;3.33;;;25.50;99.90;;;;;;5033597;28;20176;-66
2022/05/21 13:21:31;;;;;;;3.60;3.40;;;25.30;99.90;;;;;;5038714;28;20180;-66
2022/05/21 13:24:08;;;;;;;3.80;3.50;;;23.70;99.90;;;;;;5048921;28;20256;-65
2022/05/21 13:26:36;;;;;;;4.43;3.47;;;22.60;99.90;;;;;;5045336;28;20190;-66
2022/05/21 13:29:22;;;;;;;3.92;3.60;;;22.70;99.90;;;;;;5047853;28;20206;-66
2022/05/21 13:31:49;;;;;;;4.88;3.58;;;23.00;99.90;;;;;;5033102;28;20180;-66
2022/05/21 13:34:25;;;;;;;3.50;3.20;;;23.50;99.90;;;;;;5014336;28;20196;-64
2022/05/21 13:37:01;;;;;;;3.70;3.42;;;23.40;99.90;;;;;;5013620;28;20290;-65
2022/05/21 13:39:29;;;;;;;3.88;3.58;;;23.50;99.90;;;;;;5014148;28;20192;-65